Main page
METAR-TAF:

METAR-TAF

Airports :

Adnan Menderes Airport

Izmir, Turkey

latitude: 38-16N, longitude: 027-09E, elevation: 125 m

Current weather observation

The report was made 25 minutes ago, at 03:50 UTC
Calm wind
Temperature 12°C
Humidity 94%
Pressure 1009 hPa
Visibility 10 km or more
no clouds below 1500 m and no cumulonimbus

METAR: LTBJ 030350Z 00000KT CAVOK 12/11 Q1009 NOSIG

Time: 07:15 (04:15 UTC)

Forecast

The report was made 5 hours and 35 minutes ago, at 22:40 UTC
Forecast valid from 03 at 00 UTC to 03 at 24 UTC
Wind 2 kt from variable directions
Visibility 10 km or more
Scattered clouds at a height of 3000 ft
Temporary
from 03 at 10 UTC to 03 at 14 UTC
Wind 14 kt from the Southwest
Few clouds at a height of 1500 ft, Cumulonimbus.
Broken clouds at a height of 2500 ft
thunderstorm, light rain

TAF: LTBJ 022240Z 0300/0324 VRB02KT 9999 SCT030 TEMPO 0310/0314 22014KT -TSRA FEW015CB BKN025

Weather observations and forecasts of more than 4000 airports (METAR and TAF reports).

The available stations are represented by yellow and red dots on the map.

Hover mouse over dot to see the name of the station.

Then click to see weather observations and forecasts.

To change the map : click on the green buttons with a black cross to zoom in, on the green button with a dash to zoom out, or on the green arrows for adjacent maps.


METAR-TAF: